Date,TemperatureHighF,TemperatureAvgF,TemperatureLowF,DewpointHighF,DewpointAvgF,DewpointLowF,HumidityHigh,HumidityAvg,HumidityLow,PressureMaxIn,PressureMinIn,WindSpeedMaxMPH,WindSpeedAvgMPH,GustSpeedMaxMPH,PrecipitationSumIn
2013-1-1,49,38,29,25,17,7,72,47,19,30.14,30.01,7,1,13,0.00
2013-1-2,54,36,27,23,20,16,69,53,29,30.11,29.98,3,0,12,0.00
2013-1-3,32,28,23,25,23,21,93,85,67,30.21,30.07,3,0,11,0.00
2013-1-4,34,26,22,30,23,20,94,91,83,30.22,30.13,4,0,8,0.00
2013-1-5,43,32,24,29,24,21,95,75,43,30.23,30.14,11,3,21,0.00
2013-1-6,51,34,24,30,24,17,84,66,40,30.31,30.12,3,0,7,0.00
2013-1-7,56,40,30,35,28,21,81,63,43,30.12,29.80,8,1,14,0.00
2013-1-8,40,32,28,33,29,25,96,90,77,29.96,29.75,5,1,11,0.00
2013-1-9,37,35,32,36,33,30,96,94,86,30.06,29.91,11,4,21,0.00
2013-1-10,53,41,31,40,34,29,92,77,49,30.03,29.89,13,2,25,0.00
2013-1-11,61,52,45,38,28,22,75,42,23,29.93,29.72,15,4,37,0.00
2013-1-12,53,42,30,30,23,13,75,48,28,29.89,29.72,7,0,18,0.00
2013-1-13,42,31,23,19,12,5,69,46,30,30.02,29.88,5,1,11,0.00
2013-1-14,31,25,21,24,20,17,92,82,65,29.99,29.87,5,1,11,0.00
2013-1-15,35,25,19,23,18,10,90,77,57,30.14,29.93,5,1,10,0.00
2013-1-16,51,33,18,18,8,-2,58,36,23,30.28,30.14,11,3,17,0.00
2013-1-17,56,40,29,25,21,15,68,48,27,30.42,30.28,6,1,12,0.00
2013-1-18,57,43,32,24,22,19,67,45,25,30.36,30.17,6,1,24,0.00
2013-1-19,69,52,39,26,22,19,50,33,18,30.22,30.09,8,2,20,0.00
2013-1-20,70,51,37,29,23,18,49,35,19,30.22,30.03,7,1,16,0.00
2013-1-21,59,46,37,27,23,19,59,42,25,30.19,30.08,5,0,13,0.00
2013-1-22,73,53,37,31,28,24,63,42,20,30.20,30.10,4,0,14,0.00
2013-1-23,73,57,45,34,31,27,54,38,22,30.29,30.18,12,2,18,0.00
2013-1-24,76,60,50,37,34,31,55,39,19,30.25,30.13,7,1,17,0.00
2013-1-25,76,60,50,41,36,32,56,41,26,30.21,30.08,8,1,14,0.00
2013-1-26,74,61,48,41,37,32,69,45,24,30.12,29.95,10,2,20,0.00
2013-1-27,73,63,47,43,36,31,70,39,24,30.02,29.91,5,1,22,0.00
2013-1-28,69,59,50,37,30,24,48,34,22,29.95,29.80,14,2,33,0.00
2013-1-29,58,48,34,30,21,6,56,35,23,29.88,29.70,19,8,35,0.00
2013-1-30,47,36,26,18,11,4,62,37,19,30.12,29.88,14,5,27,0.00
2013-1-31,63,50,31,16,14,8,41,25,15,30.18,30.06,3,0,7,0.00
2013-2-1,67,53,36,19,16,14,40,24,14,30.19,30.05,7,1,25,0.00
2013-2-2,64,50,40,22,15,9,42,26,15,30.27,30.12,4,1,19,0.00
2013-2-3,60,49,36,26,23,22,58,39,24,30.26,29.93,6,1,17,0.00
2013-2-4,67,56,47,31,28,21,45,34,25,29.98,29.88,13,4,24,0.00
2013-2-5,67,53,41,35,30,25,68,43,25,30.00,29.89,7,1,19,0.00
2013-2-6,69,55,42,35,31,29,62,43,25,29.95,29.82,6,1,17,0.00
2013-2-7,68,55,44,31,25,22,48,32,17,30.10,29.91,13,2,19,0.00
2013-2-8,65,50,36,35,30,23,75,47,28,30.12,29.89,5,0,16,0.00
2013-2-9,72,59,46,38,29,14,59,36,15,29.91,29.63,20,7,35,0.00
2013-2-10,61,47,36,22,17,14,41,31,21,29.92,29.80,20,5,30,0.00
2013-2-11,65,50,35,32,24,15,57,38,22,29.93,29.77,8,1,28,0.00
2013-2-12,52,43,36,30,16,4,66,36,14,30.02,29.79,20,8,38,0.00
2013-2-13,57,43,27,20,11,4,73,33,12,30.06,29.91,5,1,14,0.00
2013-2-14,65,48,34,15,10,6,31,23,13,30.02,29.91,8,1,18,0.00
2013-2-15,47,36,29,28,24,10,82,66,23,30.29,30.00,9,1,22,0.00
2013-2-16,62,43,26,25,18,9,85,44,17,30.34,30.11,5,1,14,0.00
2013-2-17,68,52,36,19,14,9,38,23,11,30.11,29.80,7,2,18,0.00
2013-2-18,66,56,43,18,7,2,25,15,10,30.03,29.81,15,4,30,0.00
2013-2-19,60,49,41,28,18,4,54,31,19,30.03,29.87,4,0,11,0.00
2013-2-20,73,56,36,34,21,2,78,35,7,29.89,29.45,14,4,36,0.00
2013-2-21,55,43,31,24,17,8,73,40,17,29.85,29.55,21,9,35,0.00
2013-2-22,60,44,31,18,12,8,42,28,17,29.93,29.83,11,1,24,0.00
2013-2-23,65,50,32,20,14,9,49,26,13,29.98,29.79,13,4,24,0.00
2013-2-24,70,59,39,16,9,0,27,15,7,29.79,29.49,18,5,40,0.00
2013-2-25,51,40,28,17,11,2,53,30,20,29.94,29.65,21,9,40,0.00
2013-2-26,63,46,30,8,4,-1,33,20,8,29.93,29.75,8,2,22,0.00
2013-2-27,51,41,32,17,9,-2,48,28,12,30.16,29.84,13,2,24,0.00
2013-2-28,55,40,26,15,11,7,55,32,17,30.20,30.10,6,1,13,0.00
2013-3-1,58,45,32,13,8,2,39,23,14,30.26,30.14,10,1,21,0.00
2013-3-2,68,56,38,16,13,7,28,19,13,30.32,30.18,4,0,10,0.00
2013-3-3,79,65,43,16,10,4,27,13,7,30.19,29.89,9,3,28,0.00
2013-3-4,76,67,53,22,3,-2,21,9,5,29.93,29.75,14,4,30,0.00
2013-3-5,63,48,35,33,23,14,70,42,17,30.31,29.93,10,2,22,0.00
2013-3-6,68,50,37,24,22,20,52,35,18,30.22,30.01,9,1,25,0.00
2013-3-7,77,61,48,26,22,19,33,23,14,30.03,29.90,6,1,18,0.00
2013-3-8,75,63,51,37,32,22,58,32,21,30.00,29.80,10,2,29,0.00
2013-3-9,69,59,47,32,28,14,43,31,19,29.84,29.66,16,5,27,0.00
2013-3-10,51,44,35,22,16,12,52,34,22,30.11,29.84,16,2,20,0.00
2013-3-11,65,47,31,20,14,7,47,29,13,30.13,29.96,8,2,17,0.00
2013-3-12,69,55,43,24,14,7,32,20,12,30.22,29.98,9,2,17,0.00
2013-3-13,71,49,35,24,22,16,57,37,15,30.32,30.21,7,1,13,0.00
2013-3-14,79,68,48,24,19,16,29,17,10,30.26,30.11,6,1,13,0.00
2013-3-15,82,64,50,29,22,13,38,22,10,30.17,29.94,4,1,17,0.00
2013-3-16,83,67,51,19,15,6,25,14,8,29.96,29.75,11,2,20,0.00
2013-3-17,78,66,56,19,12,5,18,12,9,29.88,29.72,19,3,36,0.00
2013-3-18,74,65,54,23,18,11,22,16,13,30.00,29.83,7,2,20,0.00
2013-3-19,80,70,55,22,17,13,24,13,10,29.99,29.86,4,1,24,0.00
2013-3-20,67,52,40,42,38,34,83,60,40,30.22,29.93,4,1,12,0.00
2013-3-21,82,65,51,43,32,15,69,37,9,29.93,29.64,19,5,31,0.00
2013-3-22,79,70,58,26,20,15,26,15,10,29.78,29.64,10,3,25,0.00
2013-3-23,73,63,53,27,18,7,31,19,10,29.86,29.72,18,6,40,0.00
2013-3-24,59,41,24,17,8,-9,62,29,11,30.10,29.86,4,0,17,0.00
2013-3-25,55,41,29,16,11,5,39,30,21,30.17,29.93,5,1,14,0.00
2013-3-26,65,45,30,19,15,13,50,32,16,30.21,30.03,7,1,17,0.00
2013-3-27,78,63,42,32,27,15,48,27,15,30.09,29.95,7,2,18,0.00
2013-3-28,84,66,53,43,35,27,51,35,13,30.08,29.96,9,1,21,0.00
2013-3-29,81,70,57,47,37,25,65,34,15,30.09,29.98,6,1,11,0.00
2013-3-30,82,66,51,44,29,-100,61,32,13,30.08,29.93,6,1,18,0.00
2013-3-31,76,70,61,37,29,22,39,22,17,30.02,29.91,8,1,19,0.00
2013-4-1,85,72,59,53,40,33,64,35,19,30.04,29.82,9,1,19,0.00
2013-4-2,69,59,45,50,45,42,89,61,43,29.93,29.81,8,1,18,0.00
2013-4-3,61,50,38,42,38,34,96,65,42,30.09,29.90,5,1,14,0.00
2013-4-4,74,56,39,35,30,24,74,45,17,30.16,30.05,6,1,14,0.00
2013-4-5,80,63,50,36,30,23,49,32,15,30.14,29.91,11,2,22,0.00
2013-4-6,82,69,54,33,25,14,43,21,10,29.97,29.85,14,3,28,0.00
2013-4-7,84,69,57,26,19,12,21,15,9,29.91,29.75,10,2,24,0.00
2013-4-8,83,70,58,27,21,16,25,16,11,29.78,29.54,8,2,28,0.00
2013-4-9,82,69,55,30,24,17,33,19,9,29.75,29.51,15,4,34,0.00
2013-4-10,59,50,37,29,25,22,59,38,27,29.89,29.75,6,1,14,0.00
2013-4-11,69,53,38,25,20,15,52,31,14,29.91,29.76,16,3,32,0.00
2013-4-12,79,62,46,36,20,15,40,21,11,29.88,29.72,4,0,17,0.00
2013-4-13,75,59,49,47,40,34,68,50,31,29.81,29.72,7,1,16,0.00
2013-4-14,81,66,48,37,28,18,64,30,11,29.81,29.68,15,3,31,0.00
2013-4-15,84,72,58,27,22,18,25,16,10,29.84,29.74,8,2,21,0.00
2013-4-16,89,72,56,33,15,3,29,13,5,29.87,29.77,9,1,20,0.00
2013-4-17,85,76,63,49,21,7,58,16,6,29.80,29.65,10,3,28,0.00
2013-4-18,68,55,43,32,24,9,63,32,10,30.05,29.73,9,2,17,0.00
2013-4-19,68,52,33,22,16,13,43,26,13,30.20,30.01,7,1,13,0.00
2013-4-20,79,62,45,26,17,2,37,20,7,30.05,29.79,8,2,24,0.00
2013-4-21,84,73,59,19,14,8,16,11,7,30.04,29.94,6,2,14,0.00
2013-4-22,89,71,53,21,14,8,19,12,6,30.02,29.83,8,1,25,0.00
2013-4-23,66,58,48,34,30,20,55,35,18,30.04,29.81,7,2,14,0.00
2013-4-24,65,49,32,34,30,24,73,48,29,30.19,30.03,5,2,14,0.00
2013-4-25,82,60,42,47,37,28,74,45,15,30.15,29.93,9,2,21,0.00
2013-4-26,84,68,52,42,29,13,66,32,8,30.10,29.98,13,3,26,0.00
2013-4-27,79,66,55,49,33,11,57,30,14,30.13,29.96,6,1,19,0.00
2013-4-28,76,65,52,54,46,35,94,54,23,30.03,29.87,3,0,20,0.00
2013-4-29,82,65,48,47,40,30,85,48,17,29.96,29.75,4,0,18,0.00
2013-4-30,90,78,60,39,25,13,44,17,7,29.83,29.72,12,3,24,0.00
2013-5-1,88,76,62,31,19,11,22,12,9,29.97,29.78,10,0,18,0.00
2013-5-2,72,46,36,43,30,23,87,58,22,30.38,29.97,10,2,28,0.00
2013-5-3,68,46,27,23,18,11,71,40,13,30.39,30.01,3,0,12,0.00
2013-5-4,80,62,45,32,20,9,25,20,15,30.03,29.85,4,0,18,0.00
2013-5-5,77,64,52,27,22,17,27,20,14,30.10,29.95,7,1,14,0.00
2013-5-6,83,68,55,41,31,27,43,27,15,30.02,29.89,17,1,30,0.00
2013-5-7,82,68,55,39,34,27,52,31,15,30.03,29.89,7,1,22,0.00
2013-5-8,85,70,55,42,32,22,57,28,12,30.02,29.88,9,1,20,0.00
2013-5-9,81,70,59,34,28,20,28,21,14,29.99,29.88,12,2,28,0.00
2013-5-10,72,62,49,46,37,-100,90,43,28,30.13,29.91,8,1,20,0.00
2013-5-11,66,58,48,48,43,-100,90,62,47,30.23,30.13,8,1,16,0.00
2013-5-12,71,60,47,44,39,34,78,49,27,30.25,30.13,6,1,16,0.00
2013-5-13,78,62,46,46,39,35,68,44,25,30.24,30.10,9,1,21,0.00
2013-5-14,82,65,52,52,46,42,79,53,25,30.17,29.96,14,2,25,0.00
2013-5-15,84,68,52,46,41,33,77,44,19,30.06,29.86,11,2,22,0.00
2013-5-16,91,72,65,34,15,-100,30,19,12,29.97,29.86,6,1,19,0.00
2013-5-17,92,77,63,34,24,-100,31,17,8,29.96,29.85,7,1,22,0.00
2013-5-18,92,80,67,30,20,11,16,11,9,29.96,29.83,9,1,29,0.00
2013-5-19,88,77,64,27,21,15,16,12,9,29.94,29.80,14,3,26,0.00
2013-5-20,90,80,65,29,23,18,17,13,9,29.91,29.79,8,2,17,0.00
2013-5-21,87,75,65,30,24,19,23,15,9,29.94,29.80,13,2,26,0.00
2013-5-22,90,74,55,49,34,21,51,26,10,29.95,29.82,4,0,18,0.00
2013-5-23,93,74,61,57,52,46,81,51,21,30.15,29.83,9,2,21,0.00
2013-5-24,85,70,59,58,53,48,92,59,34,30.08,29.95,7,0,12,0.00
2013-5-25,91,74,62,56,52,46,77,51,22,30.09,29.95,4,0,17,0.00
2013-5-26,93,76,59,59,50,33,84,48,13,30.13,29.92,15,2,20,0.00
2013-5-27,94,80,67,58,52,38,70,43,14,30.00,29.78,12,2,25,0.00
2013-5-28,93,82,69,59,48,28,68,36,11,29.86,29.66,8,2,25,0.00
2013-5-29,89,76,62,59,40,17,87,41,9,29.82,29.67,13,3,25,0.00
2013-5-30,91,78,64,35,30,20,25,17,13,29.90,29.76,11,2,22,0.00
2013-5-31,97,80,65,36,30,23,26,17,9,29.96,29.81,5,0,21,0.00
2013-6-1,91,81,68,59,31,19,60,18,9,30.02,29.85,5,1,18,0.00
2013-6-2,86,75,63,61,57,51,78,55,37,30.11,29.93,24,3,35,0.00
2013-6-3,90,73,58,56,52,48,89,53,27,30.21,29.88,24,1,35,0.00
2013-6-4,98,81,69,59,50,40,63,39,16,29.98,29.86,6,1,16,0.00
2013-6-5,98,83,68,50,43,36,47,27,13,29.97,29.83,8,1,19,0.00
2013-6-6,83,73,60,56,53,46,72,50,33,30.02,29.88,17,2,34,0.00
2013-6-7,85,69,60,59,55,35,87,63,22,30.09,29.87,2,0,14,0.00
2013-6-8,92,76,61,54,49,38,71,43,17,29.98,29.79,5,1,24,0.00
2013-6-9,90,79,71,55,50,44,51,38,22,30.04,29.85,6,1,14,0.00
2013-6-10,94,79,63,59,50,39,77,41,15,30.10,29.96,5,1,14,0.00
2013-6-11,93,78,63,57,51,45,77,44,19,30.08,29.94,4,0,18,0.00
2013-6-12,95,78,63,59,55,47,77,50,20,30.09,29.95,9,1,14,0.00
2013-6-13,81,68,59,64,60,57,96,78,47,30.08,29.96,6,0,20,0.00
2013-6-14,78,68,60,63,61,58,97,80,50,30.06,29.93,3,0,17,0.00
2013-6-15,88,74,60,64,60,53,95,66,34,30.06,29.96,5,1,13,0.00
2013-6-16,91,76,65,64,60,54,86,62,29,30.08,30.00,7,0,14,0.00
2013-6-17,90,74,64,63,59,49,85,63,27,30.11,29.98,8,0,21,0.00
2013-6-18,88,74,61,65,59,54,89,63,40,30.13,29.98,5,0,11,0.00
2013-6-19,92,78,66,64,58,46,82,55,22,30.04,29.91,6,1,19,0.00
2013-6-20,91,76,68,63,58,50,73,55,26,30.06,29.98,6,1,16,0.00
2013-6-22,94,83,70,62,60,54,74,49,26,30.05,29.93,5,1,20,0.00
2013-6-23,94,80,69,61,57,50,74,50,23,30.01,29.87,7,1,17,0.00
2013-6-24,93,81,71,62,58,54,65,47,28,30.03,29.92,3,0,17,0.00
2013-6-25,95,82,72,62,59,54,68,48,25,30.05,29.94,4,1,12,0.00
2013-6-26,99,86,73,63,52,41,69,37,14,30.06,29.97,4,1,20,0.00
2013-6-27,98,83,72,60,53,41,61,39,15,30.11,30.03,6,1,14,0.00
2013-6-28,94,78,64,54,48,43,65,38,18,30.15,30.05,4,1,19,0.00
2013-6-29,95,82,68,55,49,42,57,34,19,30.11,29.98,5,0,17,0.00
2013-6-30,87,78,70,58,51,45,55,41,28,30.09,29.98,5,1,13,0.00
2013-7-1,73,66,60,58,55,50,93,69,48,30.19,30.03,4,1,19,0.00
2013-7-2,80,68,56,55,50,47,80,55,32,30.22,30.07,2,0,13,0.00
2013-7-3,83,72,64,49,47,43,52,41,28,30.15,29.98,7,0,12,0.00
2013-7-4,90,82,66,49,47,46,51,31,22,30.03,29.91,8,2,21,0.00
2013-7-5,94,78,65,54,49,47,58,39,21,30.02,29.87,9,1,19,0.00
2013-7-6,95,76,67,54,52,50,55,44,23,29.99,29.86,5,1,14,0.00
2013-7-7,92,79,64,56,42,-100,63,37,20,30.05,29.94,8,1,17,0.00
2013-7-8,89,73,64,61,56,-100,78,58,30,30.14,30.02,8,1,17,0.00
2013-7-9,90,75,64,62,59,56,83,60,35,30.23,30.11,9,2,18,0.00
2013-7-10,91,78,67,62,57,-100,77,52,31,30.27,30.12,9,3,18,0.00
2013-7-11,92,79,67,59,56,53,67,47,29,30.21,30.08,14,2,20,0.00
2013-7-12,95,78,65,59,55,51,72,47,25,30.17,30.06,9,2,18,0.00
2013-7-13,93,80,65,55,52,48,61,40,25,30.22,30.09,7,2,16,0.00
2013-7-14,94,81,67,52,47,43,53,33,18,30.18,29.99,10,2,15,0.00
2013-7-15,79,66,58,60,55,47,91,73,33,30.21,30.00,15,3,24,0.02
2013-7-16,64,60,58,59,56,54,91,87,82,30.29,30.16,7,2,12,0.05
2013-7-17,71,65,60,65,61,57,93,87,74,30.33,30.25,8,3,14,0.76
2013-7-18,73,66,63,63,61,60,93,84,67,30.30,30.19,8,3,14,0.06
2013-7-19,78,69,63,63,61,59,89,77,56,30.24,30.11,5,2,11,0.01
2013-7-20,79,69,65,62,59,-100,90,74,53,30.18,30.07,8,2,15,0.01
2013-7-21,83,71,63,64,60,58,90,72,46,30.14,30.04,6,1,13,0.01
2013-7-22,86,74,64,65,62,59,87,69,44,30.16,30.06,8,2,17,0.01
2013-7-23,89,76,66,64,62,58,87,65,38,30.17,30.08,9,3,22,0.00
2013-7-24,88,75,68,67,62,55,83,66,40,30.19,30.11,7,1,16,0.09
2013-7-25,91,77,64,62,57,53,82,55,28,30.27,30.16,7,2,13,0.08
2013-7-26,87,73,67,62,59,55,76,61,41,30.28,30.21,11,2,16,0.08
2013-7-27,85,75,67,63,60,54,84,61,41,30.29,30.14,8,2,15,0.02
2013-7-28,88,74,63,64,61,56,83,66,39,30.20,30.05,8,2,16,0.01
2013-7-29,85,74,67,64,61,56,81,64,43,30.23,30.10,7,2,18,0.01
2013-7-30,92,76,70,64,61,54,73,60,35,30.28,30.21,14,2,19,0.00
2013-7-31,95,80,65,63,58,54,67,49,27,30.31,30.18,9,3,15,0.00
2013-8-1,93,80,65,59,52,47,70,40,21,30.27,30.16,8,3,17,0.00
2013-8-2,95,81,66,56,51,47,58,37,22,30.22,30.08,7,2,15,0.00
2013-8-3,97,82,71,57,53,50,54,39,22,30.21,30.11,10,2,16,0.00
2013-8-4,95,85,69,59,56,53,65,39,29,30.24,30.10,9,4,15,0.00
2013-8-5,97,82,70,59,56,54,64,45,24,30.22,30.09,6,2,18,0.00
2013-8-6,93,77,70,64,59,56,81,55,30,30.18,30.10,9,2,16,0.32
2013-8-7,84,73,65,63,60,55,86,64,50,30.19,30.10,9,2,19,0.32
2013-8-8,92,78,67,61,56,53,77,51,28,30.16,30.04,7,2,17,0.06
2013-8-9,91,77,67,64,58,54,76,54,33,30.27,30.12,8,2,13,0.04
2013-8-10,85,75,67,63,59,57,77,60,42,30.32,30.22,9,3,16,0.04
2013-8-11,88,78,65,60,58,56,77,52,36,30.31,30.19,10,3,17,0.00
2013-8-12,89,76,64,61,59,56,80,56,36,30.24,30.14,9,1,15,0.00
2013-8-13,93,79,67,62,56,-100,74,50,28,30.22,30.10,7,2,16,0.00
2013-8-14,87,78,66,62,60,58,76,55,40,30.26,30.15,12,2,19,0.00
2013-8-15,92,74,66,59,44,-100,70,45,28,30.26,30.15,9,1,15,0.00
2013-8-16,92,77,66,59,48,-100,71,40,24,30.24,30.17,9,2,16,0.13
2013-8-17,93,77,62,59,53,-100,80,49,23,30.32,30.14,15,2,25,0.08
2013-8-18,91,76,67,58,54,49,64,48,29,30.25,30.18,6,2,19,0.05
2013-8-19,93,75,64,58,42,-100,66,40,17,30.25,30.13,8,2,15,0.05
2013-8-20,88,76,67,54,50,-100,57,42,30,30.21,30.13,7,2,15,0.00
2013-8-21,87,75,61,56,49,46,62,41,26,30.25,30.15,9,2,17,0.00
2013-8-22,86,76,64,58,56,53,74,52,33,30.26,30.16,8,2,18,0.00
2013-8-23,72,71,70,58,57,57,66,62,59,30.19,30.16,6,3,13,0.00
2013-8-24,85,74,65,60,56,-100,79,55,37,30.25,30.15,9,3,14,0.00
2013-8-25,86,78,63,61,57,53,78,50,39,30.33,30.21,11,4,16,0.00
2013-8-26,85,74,64,62,58,54,83,58,36,30.32,30.19,10,3,14,0.00
2013-8-27,76,69,65,62,60,59,84,74,59,30.24,30.19,7,3,13,0.00
2013-9-1,96,81,66,54,52,50,61,40,22,30.14,30.05,9,2,18,0.00
2013-9-2,87,77,66,58,55,51,58,47,34,30.22,30.10,11,2,19,0.00
2013-9-3,87,75,62,58,55,50,73,51,35,30.25,30.13,7,2,15,0.00
2013-9-4,90,77,64,57,52,49,62,43,27,30.30,30.19,12,4,22,0.00
2013-9-5,90,77,67,59,55,53,66,49,32,30.32,30.20,11,4,14,0.00
2013-9-6,86,75,62,59,55,53,76,53,35,30.31,30.17,8,3,15,0.00
2013-9-7,88,74,62,60,54,-100,80,54,32,30.25,30.10,7,2,18,0.00
2013-9-8,88,71,61,62,57,54,85,65,34,30.18,30.03,9,2,16,0.57
2013-9-9,79,67,60,62,59,56,92,77,52,30.12,30.06,9,2,19,0.57
2013-9-10,82,71,62,62,61,58,89,72,47,30.17,30.08,8,2,15,0.04
2013-9-11,79,72,66,63,62,61,85,72,55,30.22,30.11,9,3,15,0.00
2013-9-12,78,71,66,63,60,57,83,69,50,30.22,30.11,7,3,15,0.00
2013-9-13,81,72,61,59,55,52,85,58,37,30.17,30.03,9,3,16,0.00
2013-9-14,83,71,60,56,51,-100,76,51,35,30.12,30.03,8,3,19,0.00
2013-9-15,84,71,60,59,56,52,80,60,35,30.20,30.09,8,3,14,0.00
2013-9-16,78,70,61,61,58,53,83,65,51,30.24,30.16,8,3,16,0.00
2013-9-17,76,68,64,61,59,57,89,72,52,30.24,30.12,9,4,15,0.06
2013-9-18,66,63,62,62,60,58,90,88,85,30.17,30.10,4,0,10,0.08
2013-9-19,74,66,62,64,61,59,92,85,67,30.11,30.02,6,1,13,0.47
2013-9-20,71,64,59,63,60,56,93,87,72,30.19,30.03,8,3,19,0.52
2013-9-21,74,64,58,57,54,-100,91,73,50,30.23,30.09,6,2,10,0.27
2013-9-24,84,75,65,42,40,34,42,29,20,30.21,30.10,6,2,13,0.00
2013-9-25,89,73,57,55,44,39,57,38,21,30.15,29.96,8,2,15,0.00
2013-9-26,90,75,64,54,50,44,58,43,26,30.03,29.92,8,3,16,0.00
2013-9-27,87,74,66,62,55,53,79,53,35,30.02,29.92,11,2,23,0.01
2013-9-28,74,66,58,62,44,-100,87,50,27,30.28,29.97,11,4,18,0.21
2013-9-29,82,68,52,50,46,42,80,48,25,30.29,30.12,9,2,17,0.10
2013-9-30,86,68,55,46,39,34,65,39,17,30.18,30.01,10,3,20,0.00
2013-10-2,89,74,60,43,37,29,39,26,19,30.13,30.00,11,3,17,0.00
2013-10-3,88,76,64,56,47,40,61,38,25,30.08,29.95,10,4,21,0.00
2013-10-4,90,76,64,56,45,33,62,36,18,30.07,29.98,8,2,16,0.00
2013-10-5,70,63,56,45,34,22,50,34,26,30.25,30.07,8,3,18,0.00
2013-10-6,71,60,47,31,28,21,50,31,20,30.34,30.24,7,3,14,0.00
2013-10-7,78,60,46,27,23,17,42,26,13,30.35,30.20,7,1,14,0.00
2013-10-8,83,68,51,40,32,21,36,27,18,30.23,30.05,9,3,22,0.00
2013-10-9,85,70,55,45,38,33,46,32,18,30.11,30.00,7,3,23,0.00
2013-10-10,84,72,61,46,42,32,52,36,18,30.08,29.94,12,5,26,0.00
2013-10-17,75,60,47,56,51,45,94,74,43,30.19,30.03,9,2,16,0.01
2013-10-18,76,63,48,57,44,23,93,58,19,30.23,29.99,11,3,19,0.00
2013-10-19,73,53,39,46,38,-100,79,62,32,30.29,30.11,6,2,15,0.00
2013-10-20,78,61,49,50,40,31,84,52,22,30.13,29.96,9,3,17,0.00
2013-10-21,66,56,48,40,35,25,66,47,35,30.24,30.03,9,3,20,0.00
2013-10-22,72,56,42,43,37,32,87,52,25,30.34,30.20,6,1,12,0.00
2013-10-23,77,60,44,36,33,28,56,39,22,30.27,30.16,7,1,15,0.00
2013-10-24,79,64,49,41,37,33,58,39,24,30.28,30.17,5,2,13,0.00
2013-10-25,68,61,49,45,41,34,77,49,31,30.31,30.20,4,2,12,0.01
2013-10-26,78,62,50,49,45,-100,80,58,34,30.29,30.18,7,2,15,0.00
2013-10-27,76,62,47,47,43,39,78,53,33,30.28,30.08,9,2,21,0.00
2013-10-28,78,65,56,51,42,-100,76,49,20,30.12,30.02,11,2,21,0.00
2013-10-29,78,66,58,56,46,34,84,50,30,30.16,30.05,9,2,14,0.00
2013-10-30,71,63,58,57,50,44,83,64,41,30.13,29.99,9,3,21,0.01
2013-11-18,68,58,47,39,36,34,62,45,35,30.25,30.15,4,1,11,0.00
2013-11-19,74,61,47,46,42,35,67,52,34,30.19,29.99,10,3,24,0.00
2013-11-20,76,62,55,54,46,37,84,58,26,30.03,29.91,10,3,21,0.00
2013-11-21,74,62,52,50,44,38,85,53,33,30.18,29.99,7,2,14,0.00
2013-11-22,55,29,23,51,26,20,90,85,69,30.42,30.17,10,4,21,0.00
2013-11-23,26,24,23,23,21,-100,91,89,89,30.45,30.35,8,3,18,0.00
2013-11-24,24,22,21,22,20,19,90,90,90,30.40,30.34,4,2,10,0.00
2013-12-7,23,22,20,21,20,17,91,90,89,30.24,30.20,0,0,0,0.01
2013-12-8,65,44,30,39,29,20,94,63,18,30.05,29.96,13,3,22,0.01
2013-12-9,65,46,28,32,25,20,91,51,20,30.32,29.98,10,3,21,0.01
2013-12-10,56,37,25,28,23,17,91,63,21,30.37,30.20,8,2,15,0.00
2013-12-11,50,41,33,30,25,19,63,51,35,30.51,30.22,10,3,14,0.00
2013-12-12,57,41,31,30,24,18,67,51,35,30.50,30.21,5,1,10,0.00
2013-12-13,60,49,41,40,32,26,65,53,35,30.21,29.98,18,6,32,0.01